Portada
METAR-TAF:

METAR-TAF

Aeroports :

Laoag, Filipines

latitud: 18-11N, longitud: 120-32E, altitud: 4 m

Observació

L'informe es va fer fa 38 minuts, a les 06:00 UTC
Vent 7 kt del Oest/Nord-Oest, variant entre Sud-Oest i Nord/Nord-Oest
Temperatura 30°C
Humitat 75%
Pressió 1013 hPa
Visibilitat 10 km o més
Escasses núvols a una alçada de 1800 ft

METAR: RPLI 050600Z 29007KT 230V340 9999 FEW018 30/25 Q1013 NOSIG RMK A2991

Hora: 14:38 (06:38 UTC)

Pronòstic

L'informe es va fer fa 1 hora i 38 minuts, a les 05:00 UTC
Pronòstic vàlid del 05 a les 06 UTC al 06 a les 06 UTC
Vent 7 kt del Nord/Nord-Oest
Visibilitat 10 km o més
Escasses núvols a una alçada de 1800 ft
Temporalment
l' 05 a les 06 UTC al 05 a les 12 UTC
Vent 8 kt del Nord-Oest
Escasses núvols a una alçada de 1800 ft
Núvols disperses a una alçada de 9000 ft

TAF: RPLI 050500Z 0506/0606 33007KT 9999 FEW018 TEMPO 0506/0512 32008KT FEW018 SCT090

Observacions i pronòstics meteorològics de més de 4000 aeroports (METAR i TAF).

Les estacions disponibles són els punts grocs i vermells al mapa.

Posi el ratolí al punt desitjat per veure el nom de l'estació.

Feu clic per veure les observacions i els pronòstics meteorològics.

Per canviar el mapa: feu clic els botons verds amb una creu de color negre per apropar; al botó verd amb un guió per allunyar la imatge; o en les fletxes verdes per a mapes adjacents.


METAR-TAF: